createdAt,value
2022-09-12T00:00:55.829Z,14.81
2022-09-12T00:06:09.273Z,14.77
2022-09-12T00:11:01.790Z,14.74
2022-09-12T00:16:01.587Z,14.70
2022-09-12T00:21:01.564Z,14.68
2022-09-12T00:26:01.463Z,14.67
2022-09-12T00:31:01.385Z,14.65
2022-09-12T00:36:01.364Z,14.63
2022-09-12T00:41:01.256Z,14.61
2022-09-12T00:46:01.285Z,14.59
2022-09-12T00:51:01.173Z,14.57
2022-09-12T00:56:01.077Z,14.56
2022-09-12T01:01:01.312Z,14.52
2022-09-12T01:06:00.941Z,14.48
2022-09-12T01:11:00.915Z,14.44
2022-09-12T01:16:00.791Z,14.40
2022-09-12T01:21:00.736Z,14.37
2022-09-12T01:26:00.679Z,14.33
2022-09-12T01:31:00.574Z,14.29
2022-09-12T01:36:00.589Z,14.24
2022-09-12T01:41:00.455Z,14.20
2022-09-12T01:46:00.415Z,14.17
2022-09-12T01:51:00.315Z,14.15
2022-09-12T01:56:00.286Z,14.12
2022-09-12T02:01:00.272Z,14.09
2022-09-12T02:06:00.172Z,14.06
2022-09-12T02:11:00.059Z,14.03
2022-09-12T02:16:00.009Z,14.00
2022-09-12T02:20:59.963Z,13.98
2022-09-12T02:25:59.911Z,13.96
2022-09-12T02:30:59.827Z,13.94
2022-09-12T02:35:59.744Z,13.92
2022-09-12T02:40:59.697Z,13.89
2022-09-12T02:45:59.688Z,13.86
2022-09-12T02:50:59.567Z,13.82
2022-09-12T02:55:59.527Z,13.79
2022-09-12T03:00:59.464Z,13.75
2022-09-12T03:05:59.423Z,13.72
2022-09-12T03:10:59.303Z,13.69
2022-09-12T03:15:59.164Z,13.65
2022-09-12T03:20:59.162Z,13.62
2022-09-12T03:25:59.088Z,13.60
2022-09-12T03:30:59.029Z,13.58
2022-09-12T03:35:58.927Z,13.56
2022-09-12T03:40:58.869Z,13.55
2022-09-12T03:45:58.855Z,13.53
2022-09-12T03:50:58.749Z,13.51
2022-09-12T03:55:58.652Z,13.49
2022-09-12T04:00:58.649Z,13.47
2022-09-12T04:05:58.544Z,13.45
2022-09-12T04:10:58.457Z,13.44
2022-09-12T04:16:07.447Z,13.45
2022-09-12T04:21:00.370Z,13.48
2022-09-12T04:26:00.457Z,13.53
2022-09-12T04:31:00.258Z,13.61
2022-09-12T04:36:00.169Z,13.69
2022-09-12T04:41:00.096Z,13.75
2022-09-12T04:46:01.092Z,13.81
2022-09-12T04:50:59.943Z,13.85
2022-09-12T04:56:00.044Z,13.87
2022-09-12T05:01:01.708Z,13.88
2022-09-12T05:05:59.757Z,13.88
2022-09-12T05:10:59.885Z,13.87
2022-09-12T05:16:00.680Z,13.87
2022-09-12T05:20:59.553Z,13.89
2022-09-12T05:26:00.415Z,13.93
2022-09-12T05:30:59.497Z,13.97
2022-09-12T05:35:59.349Z,14.03
2022-09-12T05:40:59.296Z,14.09
2022-09-12T05:45:59.223Z,14.15
2022-09-12T05:51:00.104Z,14.22
2022-09-12T05:56:00.037Z,14.31
2022-09-12T06:01:00.028Z,14.43
2022-09-12T06:05:59.011Z,14.54
2022-09-12T06:11:02.155Z,14.63
2022-09-12T06:15:58.875Z,14.71
2022-09-12T06:20:58.750Z,14.83
2022-09-12T06:25:59.648Z,14.99
2022-09-12T06:30:58.671Z,15.16
2022-09-12T06:35:58.563Z,15.27
2022-09-12T06:40:58.533Z,15.30
2022-09-12T06:45:58.438Z,15.28
2022-09-12T06:50:58.371Z,15.26
2022-09-12T06:55:58.303Z,15.26
2022-09-12T07:00:59.562Z,15.26
2022-09-12T07:05:58.419Z,15.27
2022-09-12T07:10:58.089Z,15.31
2022-09-12T07:15:58.002Z,15.35
2022-09-12T07:20:57.954Z,15.38
2022-09-12T07:25:57.916Z,15.46
2022-09-12T07:30:57.993Z,15.64
2022-09-12T07:35:57.784Z,15.86
2022-09-12T07:40:57.679Z,16.06
2022-09-12T07:45:57.650Z,16.26
2022-09-12T07:50:57.551Z,16.45
2022-09-12T07:55:57.487Z,16.67
2022-09-12T08:00:57.420Z,16.87
2022-09-12T08:05:57.352Z,17.09
2022-09-12T08:10:57.309Z,17.36
2022-09-12T08:15:57.253Z,17.60
2022-09-12T08:20:57.173Z,17.68
2022-09-12T08:25:57.101Z,17.65
2022-09-12T08:30:57.100Z,17.79
2022-09-12T08:35:57.002Z,18.29
2022-09-12T08:40:56.936Z,19.11
2022-09-12T08:45:56.883Z,20.34
2022-09-12T08:50:56.755Z,21.88
2022-09-12T08:55:56.685Z,23.56
2022-09-12T09:00:56.615Z,25.30
2022-09-12T09:05:56.557Z,26.91
2022-09-12T09:10:56.664Z,28.47
2022-09-12T09:15:56.437Z,30.02
2022-09-12T09:20:56.370Z,31.26
2022-09-12T09:25:56.304Z,32.13
2022-09-12T09:30:56.307Z,32.52
2022-09-12T09:35:56.157Z,33.21
2022-09-12T09:40:56.108Z,34.66
2022-09-12T09:45:56.068Z,36.47
2022-09-12T09:50:55.943Z,38.52
2022-09-12T09:55:55.904Z,39.99
2022-09-12T10:00:56.823Z,40.71
2022-09-12T10:05:55.772Z,41.50
2022-09-12T10:10:55.718Z,42.55
2022-09-12T10:15:55.738Z,43.09
2022-09-12T10:20:55.561Z,42.94
2022-09-12T10:25:55.518Z,42.47
2022-09-12T10:30:55.547Z,41.89
2022-09-12T10:35:55.403Z,41.82
2022-09-12T10:40:55.343Z,42.09
2022-09-12T10:45:55.285Z,42.47
2022-09-12T10:50:55.205Z,43.02
2022-09-12T10:55:55.132Z,43.38
2022-09-12T11:00:55.070Z,43.19
2022-09-12T11:05:55.016Z,43.06
2022-09-12T11:10:54.950Z,43.21
2022-09-12T11:15:54.943Z,43.27
2022-09-12T11:20:54.807Z,43.15
2022-09-12T11:25:54.788Z,42.88
2022-09-12T11:30:54.750Z,42.31
2022-09-12T11:35:55.661Z,41.69
2022-09-12T11:40:54.576Z,41.28
2022-09-12T11:45:54.593Z,40.94
2022-09-12T11:50:54.421Z,40.57
2022-09-12T11:55:54.376Z,40.26
2022-09-12T12:00:54.300Z,39.92
2022-09-12T12:05:54.270Z,39.56
2022-09-12T12:10:54.172Z,39.26
2022-09-12T12:15:54.157Z,38.94
2022-09-12T12:20:54.100Z,38.49
2022-09-12T12:25:54.057Z,37.97
2022-09-12T12:30:54.048Z,37.47
2022-09-12T12:35:53.896Z,36.98
2022-09-12T12:40:53.786Z,36.37
2022-09-12T12:45:53.783Z,35.66
2022-09-12T12:50:53.680Z,35.00
2022-09-12T12:55:53.683Z,34.46
2022-09-12T13:00:53.552Z,34.03
2022-09-12T13:05:53.461Z,33.64
2022-09-12T13:10:53.573Z,33.26
2022-09-12T13:15:53.645Z,32.83
2022-09-12T13:20:53.261Z,32.38
2022-09-12T13:25:53.240Z,31.93
2022-09-12T13:30:53.229Z,31.49
2022-09-12T13:35:53.242Z,31.15
2022-09-12T13:40:53.015Z,30.92
2022-09-12T13:45:52.991Z,30.71
2022-09-12T13:50:52.883Z,30.48
2022-09-12T13:55:52.827Z,30.28
2022-09-12T14:00:52.784Z,30.12
2022-09-12T14:05:52.700Z,29.95
2022-09-12T14:10:52.616Z,29.77
2022-09-12T14:15:52.754Z,29.59
2022-09-12T14:20:52.552Z,29.41
2022-09-12T14:25:52.456Z,29.22
2022-09-12T14:30:52.383Z,29.05
2022-09-12T14:35:52.312Z,28.92
2022-09-12T14:40:52.289Z,28.80
2022-09-12T14:45:52.218Z,28.68
2022-09-12T14:50:52.142Z,28.55
2022-09-12T14:55:52.035Z,28.41
2022-09-12T15:00:51.956Z,28.27
2022-09-12T15:05:51.879Z,28.14
2022-09-12T15:10:51.901Z,27.99
2022-09-12T15:15:51.856Z,27.88
2022-09-12T15:20:51.705Z,27.77
2022-09-12T15:25:51.644Z,27.67
2022-09-12T15:30:51.612Z,27.56
2022-09-12T15:35:51.576Z,27.40
2022-09-12T15:40:51.474Z,27.18
2022-09-12T15:45:51.411Z,26.93
2022-09-12T15:50:51.331Z,26.72
2022-09-12T15:55:51.268Z,26.52
2022-09-12T16:00:51.173Z,26.29
2022-09-12T16:05:51.208Z,26.04
2022-09-12T16:10:51.159Z,25.86
2022-09-12T16:15:50.979Z,25.74
2022-09-12T16:20:50.931Z,25.67
2022-09-12T16:25:50.862Z,25.62
2022-09-12T16:30:50.821Z,25.55
2022-09-12T16:35:50.719Z,25.43
2022-09-12T16:40:50.675Z,25.27
2022-09-12T16:45:50.590Z,25.09
2022-09-12T16:50:50.535Z,24.88
2022-09-12T16:55:50.472Z,24.67
2022-09-12T17:00:50.428Z,24.47
2022-09-12T17:05:50.313Z,24.27
2022-09-12T17:10:50.273Z,24.08
2022-09-12T17:15:50.253Z,23.91
2022-09-12T17:20:50.174Z,23.74
2022-09-12T17:25:50.053Z,23.58
2022-09-12T17:30:49.996Z,23.42
2022-09-12T17:35:49.921Z,23.25
2022-09-12T17:40:59.522Z,23.07
2022-09-12T17:45:50.822Z,22.89
2022-09-12T17:50:49.746Z,22.70
2022-09-12T17:55:54.158Z,22.52
2022-09-12T18:00:49.603Z,22.33
2022-09-12T18:05:49.549Z,22.16
2022-09-12T18:10:49.468Z,21.98
2022-09-12T18:15:49.421Z,21.81
2022-09-12T18:20:49.338Z,21.66
2022-09-12T18:25:49.306Z,21.52
2022-09-12T18:30:49.248Z,21.40
2022-09-12T18:35:49.195Z,21.30
2022-09-12T18:40:49.090Z,21.20
2022-09-12T18:45:49.028Z,21.10
2022-09-12T18:50:48.921Z,21.00
2022-09-12T18:55:48.882Z,20.91
2022-09-12T19:00:48.853Z,20.82
2022-09-12T19:05:48.740Z,20.73
2022-09-12T19:10:48.767Z,20.65
2022-09-12T19:15:48.671Z,20.57
2022-09-12T19:20:48.545Z,20.50
2022-09-12T19:25:48.513Z,20.43
2022-09-12T19:30:48.704Z,20.36
2022-09-12T19:35:48.385Z,20.29
2022-09-12T19:40:48.270Z,20.21
2022-09-12T19:45:48.276Z,20.13
2022-09-12T19:50:48.127Z,20.05
2022-09-12T19:55:48.079Z,19.96
2022-09-12T20:00:48.226Z,19.85
2022-09-12T20:05:48.095Z,19.72
2022-09-12T20:10:47.913Z,19.58
2022-09-12T20:15:47.885Z,19.46
2022-09-12T20:20:47.766Z,19.33
2022-09-12T20:25:47.701Z,19.21
2022-09-12T20:30:47.713Z,19.09
2022-09-12T20:35:47.545Z,18.99
2022-09-12T20:40:47.489Z,18.89
2022-09-12T20:45:47.419Z,18.79
2022-09-12T20:50:47.386Z,18.69
2022-09-12T20:55:47.315Z,18.60
2022-09-12T21:00:47.231Z,18.54
2022-09-12T21:05:47.158Z,18.49
2022-09-12T21:10:47.088Z,18.45
2022-09-12T21:15:47.056Z,18.41
2022-09-12T21:20:46.953Z,18.38
2022-09-12T21:25:52.479Z,18.36
2022-09-12T21:30:47.855Z,18.33
2022-09-12T21:35:46.806Z,18.30
2022-09-12T21:40:46.690Z,18.27
2022-09-12T21:45:46.615Z,18.25
2022-09-12T21:50:46.566Z,18.23
2022-09-12T21:55:46.508Z,18.20
2022-09-12T22:00:46.531Z,18.15
2022-09-12T22:05:46.374Z,18.11
2022-09-12T22:10:46.284Z,18.07
2022-09-12T22:15:46.310Z,18.03
2022-09-12T22:20:46.224Z,17.98
2022-09-12T22:25:46.101Z,17.91
2022-09-12T22:30:46.131Z,17.84
2022-09-12T22:35:45.965Z,17.76
2022-09-12T22:40:45.901Z,17.69
2022-09-12T22:45:45.878Z,17.63
2022-09-12T22:50:45.809Z,17.56
2022-09-12T22:55:45.695Z,17.47
2022-09-12T23:00:45.673Z,17.38
2022-09-12T23:05:45.553Z,17.29
2022-09-12T23:10:45.686Z,17.21
2022-09-12T23:15:45.440Z,17.15
2022-09-12T23:20:45.418Z,17.10
2022-09-12T23:25:45.306Z,17.05
2022-09-12T23:30:45.232Z,17.00
2022-09-12T23:35:45.166Z,16.96
2022-09-12T23:40:45.097Z,16.94
2022-09-12T23:45:45.077Z,16.92
2022-09-12T23:50:44.946Z,16.90
2022-09-12T23:55:44.888Z,16.89
